Time;durP1;ratioP1;P1;durP2;ratioP2;P2;SDS_P1;SDS_P2;PMS_P1;PMS_P2;Temp;Humidity;BMP_temperature;BMP_pressure;BME280_temperature;BME280_humidity;BME280_pressure;Samples;Min_cycle;Max_cycle;Signal;HPM_P1;HPM_P2
2021/06/26 00:02:48;;;;;;;1999.90;999.90;;;;;;;13.90;100.00;98627.75;4024712;73;43332;-23
2021/06/26 00:07:54;;;;;;;1999.90;999.90;;;;;;;13.90;100.00;98625.87;3975070;74;43323;-23
2021/06/26 00:13:00;;;;;;;1999.90;999.90;;;;;;;13.85;100.00;98621.52;3954625;75;43479;-23
2021/06/26 00:18:07;;;;;;;1999.90;999.90;;;;;;;13.85;100.00;98618.80;3954937;74;43693;-23
2021/06/26 00:23:14;;;;;;;1999.90;999.90;;;;;;;13.84;100.00;98623.88;3954979;75;44055;-23
2021/06/26 00:28:20;;;;;;;1999.90;999.90;;;;;;;13.89;100.00;98632.83;4010484;74;42981;-23
2021/06/26 00:33:26;;;;;;;1999.90;999.90;;;;;;;13.89;100.00;98620.64;4024116;74;43306;-24
2021/06/26 00:38:32;;;;;;;1999.90;999.90;;;;;;;13.91;100.00;98634.86;3966596;74;44127;-24
2021/06/26 00:43:38;;;;;;;1999.90;999.90;;;;;;;13.91;100.00;98635.69;3954848;75;43702;-24
2021/06/26 00:48:45;;;;;;;1999.90;999.90;;;;;;;13.90;100.00;98635.34;3954409;75;43342;-23
2021/06/26 00:53:51;;;;;;;1999.90;999.90;;;;;;;13.83;100.00;98631.67;3878499;76;44019;-23
2021/06/26 00:58:59;;;;;;;1999.90;999.90;;;;;;;13.79;100.00;98627.13;3954596;74;43669;-23
2021/06/26 01:04:05;;;;;;;1999.90;999.90;;;;;;;13.75;100.00;98629.84;3996451;74;44030;-23
2021/06/26 01:14:23;;;;;;;1999.90;999.90;;;;;;;13.74;100.00;98630.86;4046794;73;27178;-23
2021/06/26 01:19:29;;;;;;;1999.90;999.90;;;;;;;13.74;100.00;98632.74;3895593;76;44043;-22
2021/06/26 01:24:37;;;;;;;1999.90;999.90;;;;;;;13.71;100.00;98630.72;3894290;75;43712;-22
2021/06/26 01:29:49;;;;;;;1999.90;999.90;;;;;;;13.70;100.00;98629.55;3814322;77;43374;-23
2021/06/26 01:34:55;;;;;;;1999.90;999.90;;;;;;;13.66;100.00;98633.09;3851118;77;43452;-23
2021/06/26 01:40:02;;;;;;;1999.90;999.90;;;;;;;13.62;100.00;98625.50;3838986;77;43356;-23
2021/06/26 01:45:10;;;;;;;1999.90;999.90;;;;;;;13.61;100.00;98626.02;3839200;77;44075;-23
2021/06/26 01:50:18;;;;;;;1999.90;999.90;;;;;;;13.62;100.00;98633.62;3838915;77;43689;-22
2021/06/26 01:55:24;;;;;;;1999.90;999.90;;;;;;;13.60;100.00;98641.07;3838772;77;43385;-23
2021/06/26 02:00:30;;;;;;;1999.90;999.90;;;;;;;13.59;100.00;98639.38;3838866;77;44058;-23
2021/06/26 02:05:37;;;;;;;1999.90;999.90;;;;;;;13.59;100.00;98639.38;3839216;77;44541;-23
2021/06/26 02:10:44;;;;;;;1999.90;999.90;;;;;;;13.51;100.00;98633.52;3846993;76;43305;-23
2021/06/26 02:15:50;;;;;;;1999.90;999.90;;;;;;;13.49;100.00;98632.32;3996293;74;43213;-23
2021/06/26 02:20:56;;;;;;;1999.90;999.90;;;;;;;13.50;100.00;98634.01;3996253;74;44450;-23
2021/06/26 02:26:03;;;;;;;1999.90;999.90;;;;;;;13.50;100.00;98635.89;3947841;74;43125;-23
2021/06/26 02:31:09;;;;;;;1999.90;999.90;;;;;;;13.49;100.00;98641.79;3926577;75;44041;-22
2021/06/26 02:36:16;;;;;;;1999.90;999.90;;;;;;;13.45;100.00;98638.26;3950608;74;44083;-23
2021/06/26 02:41:22;;;;;;;1999.90;999.90;;;;;;;13.48;100.00;98643.33;3994864;74;44521;-23
2021/06/26 02:46:29;;;;;;;1999.90;999.90;;;;;;;13.45;100.00;98644.53;3995178;74;43699;-23
2021/06/26 02:51:35;;;;;;;1999.90;999.90;;;;;;;13.43;100.00;98643.86;3995398;74;43040;-23
2021/06/26 02:56:42;;;;;;;1999.90;999.90;;;;;;;13.44;100.00;98648.25;3995711;74;43756;-23
2021/06/26 03:01:48;;;;;;;1999.90;999.90;;;;;;;13.38;100.00;98652.96;3994705;74;44099;-22
2021/06/26 03:06:54;;;;;;;1999.90;999.90;;;;;;;13.37;100.00;98652.63;3819028;77;44443;-23
2021/06/26 03:17:15;;;;;;;1999.90;999.90;;;;;;;13.38;100.00;98646.20;4008455;73;27233;-20
2021/06/26 03:22:23;;;;;;;1999.90;999.90;;;;;;;13.28;100.00;98644.20;3820872;77;43383;-24
2021/06/26 03:27:30;;;;;;;1999.90;999.90;;;;;;;13.24;100.00;98646.41;3928704;75;43337;-24
2021/06/26 03:32:37;;;;;;;1999.90;999.90;;;;;;;13.25;100.00;98656.22;3961408;75;43432;-24
2021/06/26 03:37:44;;;;;;;1999.90;999.90;;;;;;;13.23;100.00;98650.96;3918940;75;43376;-23
2021/06/26 03:42:50;;;;;;;1999.90;999.90;;;;;;;13.23;100.00;98647.43;3895354;76;43686;-24
2021/06/26 03:47:56;;;;;;;1999.90;999.90;;;;;;;13.19;100.00;98652.34;3893865;75;44502;-24
2021/06/26 03:58:14;;;;;;;1999.90;999.90;;;;;;;13.19;100.00;98663.17;3993887;73;27662;-21
2021/06/26 04:03:20;;;;;;;1999.90;999.90;;;;;;;13.13;100.00;98676.02;3895066;76;44200;-23
2021/06/26 04:08:27;;;;;;;1999.90;999.90;;;;;;;13.15;100.00;98668.58;3895092;75;43463;-22
2021/06/26 04:13:34;;;;;;;1999.90;999.90;;;;;;;13.09;100.00;98674.69;3820821;77;43287;-23
2021/06/26 04:18:40;;;;;;;1999.90;999.90;;;;;;;13.09;100.00;98680.09;3895228;75;44059;-23
2021/06/26 04:23:49;;;;;;;1999.90;999.90;;;;;;;13.22;100.00;98679.55;3817335;77;43697;-23
2021/06/26 04:28:55;;;;;;;1999.90;999.90;;;;;;;13.28;100.00;98692.90;3955731;75;44032;-23
2021/06/26 04:39:14;;;;;;;1999.90;999.90;;;;;;;13.52;100.00;98680.70;3980722;73;27606;-20
2021/06/26 04:44:21;;;;;;;1999.90;999.90;;;;;;;13.58;100.00;98681.86;3895151;76;43319;-21
2021/06/26 04:49:28;;;;;;;1999.90;999.90;;;;;;;13.69;100.00;98684.72;3894965;75;44014;-22
2021/06/26 04:54:35;;;;;;;1999.90;999.90;;;;;;;13.74;100.00;98690.44;3895488;75;44002;-22
2021/06/26 04:59:41;;;;;;;1999.90;999.90;;;;;;;13.71;100.00;98696.19;3904998;73;43010;-22
2021/06/26 05:04:47;;;;;;;1999.90;999.90;;;;;;;13.86;100.00;98697.16;3934293;73;43318;-22
2021/06/26 05:09:53;;;;;;;1999.90;999.90;;;;;;;13.92;100.00;98692.07;3945016;73;43310;-22
2021/06/26 05:14:59;;;;;;;1999.90;999.90;;;;;;;14.07;100.00;98699.77;3923445;73;43695;-22
2021/06/26 05:20:07;;;;;;;1999.90;999.90;;;;;;;14.01;100.00;98699.13;3920311;73;43718;-21
2021/06/26 05:25:15;;;;;;;1999.90;999.90;;;;;;;14.10;100.00;98698.06;3928985;73;43319;-22
2021/06/26 05:30:23;;;;;;;1999.90;999.90;;;;;;;14.20;100.00;98703.77;3926725;73;43718;-23
2021/06/26 05:35:30;;;;;;;1999.90;999.90;;;;;;;14.14;100.00;98702.61;3939562;73;43991;-22
2021/06/26 05:40:36;;;;;;;1999.90;999.90;;;;;;;14.17;100.00;98701.73;3784249;76;43334;-22
2021/06/26 05:45:43;;;;;;;1999.90;999.90;;;;;;;14.28;100.00;98709.16;3922491;73;43393;-20
2021/06/26 05:50:49;;;;;;;1999.90;999.90;;;;;;;14.29;100.00;98717.09;3920797;73;44082;-21
2021/06/26 05:55:59;;;;;;;1999.90;999.90;;;;;;;14.38;100.00;98721.97;3919850;73;42999;-20
2021/06/26 06:01:10;;;;;;;1999.90;999.90;;;;;;;14.57;100.00;98717.09;3911444;73;43419;-21
2021/06/26 06:06:15;;;;;;;1999.90;999.90;;;;;;;14.68;100.00;98714.52;3911883;73;42789;-22
2021/06/26 06:11:21;;;;;;;1999.90;999.90;;;;;;;14.79;100.00;98711.39;3906343;73;44867;-21
2021/06/26 06:16:27;;;;;;;1999.90;999.90;;;;;;;15.02;100.00;98711.34;3926859;73;43698;-21
2021/06/26 06:21:34;;;;;;;1999.90;999.90;;;;;;;15.24;100.00;98713.70;3916002;73;44486;-21
2021/06/26 06:26:40;;;;;;;1999.90;999.90;;;;;;;15.36;100.00;98717.33;3921367;73;43689;-21
2021/06/26 06:31:46;;;;;;;1999.90;999.90;;;;;;;15.36;100.00;98718.16;3935033;73;44101;-22
2021/06/26 06:36:52;;;;;;;1999.90;999.90;;;;;;;15.46;100.00;98723.86;3923465;73;44446;-22
2021/06/26 06:41:58;;;;;;;1999.90;999.90;;;;;;;15.71;100.00;98720.35;3927090;73;44006;-21
2021/06/26 06:47:06;;;;;;;1999.90;999.90;;;;;;;15.91;100.00;98722.02;3923942;73;44209;-21
2021/06/26 06:52:12;;;;;;;1999.90;999.90;;;;;;;15.93;100.00;98730.83;3922493;73;44562;-21
2021/06/26 06:57:22;;;;;;;1999.90;999.90;;;;;;;16.25;100.00;98731.44;3925397;73;43458;-21
2021/06/26 07:02:26;;;;;;;1999.90;999.90;;;;;;;16.46;100.00;98726.54;3908129;73;44088;-21
2021/06/26 07:07:32;;;;;;;1999.90;999.90;;;;;;;16.52;100.00;98721.37;3926463;73;44745;-23
2021/06/26 07:12:39;;;;;;;1999.90;999.90;;;;;;;16.55;100.00;98715.56;3930701;73;44430;-24
2021/06/26 07:17:45;;;;;;;1999.90;999.90;;;;;;;16.67;100.00;98715.38;3912687;73;43095;-23
2021/06/26 07:22:51;;;;;;;1999.90;999.90;;;;;;;16.84;100.00;98717.33;3918696;73;43684;-23
2021/06/26 07:28:02;;;;;;;1999.90;999.90;;;;;;;16.96;100.00;98715.47;3906739;73;44152;-23
2021/06/26 07:33:09;;;;;;;1999.90;999.90;;;;;;;17.12;100.00;98715.17;3912423;73;43353;-21
2021/06/26 07:38:16;;;;;;;1999.90;999.90;;;;;;;17.16;100.00;98711.03;3935266;74;43715;-22
2021/06/26 07:43:22;;;;;;;1999.90;999.90;;;;;;;17.24;100.00;98706.80;3930992;73;43349;-22
2021/06/26 07:48:28;;;;;;;1999.90;999.90;;;;;;;17.37;100.00;98700.63;3934817;73;44033;-22
2021/06/26 07:53:34;;;;;;;1999.90;999.90;;;;;;;17.55;100.00;98697.39;3923312;73;44379;-22
2021/06/26 07:58:40;;;;;;;1999.90;999.90;;;;;;;17.71;100.00;98690.77;3933419;73;43714;-20
2021/06/26 08:03:46;;;;;;;1999.90;999.90;;;;;;;17.89;100.00;98689.92;3925888;73;43692;-23
2021/06/26 08:08:53;;;;;;;1999.90;999.90;;;;;;;18.01;100.00;98686.97;3923339;73;43401;-21
2021/06/26 08:13:59;;;;;;;1999.90;999.90;;;;;;;18.07;100.00;98683.41;3924511;73;43112;-21
2021/06/26 08:19:05;;;;;;;1999.90;999.90;;;;;;;18.26;100.00;98679.08;3912877;73;43124;-22
2021/06/26 08:43:33;;;;;;;1999.90;999.90;;;;;;;18.87;100.00;98669.66;3742856;77;27299;-19
2021/06/26 08:53:53;;;;;;;1999.90;999.90;;;;;;;19.07;100.00;98669.17;3998970;73;27252;-19
2021/06/26 08:58:59;;;;;;;1999.90;999.90;;;;;;;19.29;100.00;98669.45;3945427;74;44567;-21
2021/06/26 09:05:31;;;;;;;1999.90;999.90;;;;;;;19.54;100.00;98666.36;3960996;73;42575;-20
2021/06/26 09:17:05;;;;;;;1999.90;999.90;;;;;;;20.37;100.00;98653.56;3720806;73;36686;-25
2021/06/26 09:27:24;;;;;;;1999.90;999.90;;;;;;;20.24;100.00;98653.95;4007713;72;27665;-24
2021/06/26 09:32:31;;;;;;;1999.90;999.90;;;;;;;20.38;100.00;98662.91;3936437;73;44582;-25
2021/06/26 09:42:55;;;;;;;1999.90;999.90;;;;;;;20.58;100.00;98653.21;3981510;73;27232;-21
2021/06/26 09:48:07;;;;;;;1999.90;999.90;;;;;;;20.92;100.00;98653.83;3932369;74;43245;-22
2021/06/26 09:53:13;;;;;;;1999.90;999.90;;;;;;;21.17;100.00;98656.28;3936642;74;44621;-22
